createdAt,value
2019-01-19T00:02:28.070Z,11.67
2019-01-19T00:05:34.460Z,13.60
2019-01-19T00:08:11.236Z,15.13
2019-01-19T00:10:42.699Z,14.93
2019-01-19T00:13:23.198Z,14.90
2019-01-19T00:16:03.519Z,15.70
2019-01-19T00:18:40.599Z,15.47
2019-01-19T00:21:20.680Z,16.33
2019-01-19T00:23:54.972Z,16.40
2019-01-19T00:26:41.550Z,16.93
2019-01-19T00:29:31.278Z,16.00
2019-01-19T00:32:05.595Z,15.73
2019-01-19T00:34:45.851Z,18.17
2019-01-19T00:37:17.319Z,17.97
2019-01-19T00:39:54.771Z,17.60
2019-01-19T00:42:31.447Z,19.60
2019-01-19T00:45:37.467Z,19.20
2019-01-19T00:48:08.928Z,19.73
2019-01-19T00:50:49.473Z,18.80
2019-01-19T00:53:20.940Z,20.00
2019-01-19T00:56:10.495Z,21.20
2019-01-19T00:58:44.592Z,22.30
2019-01-19T01:01:21.753Z,21.37
2019-01-19T01:04:04.867Z,20.00
2019-01-19T01:06:54.439Z,21.73
2019-01-19T01:09:46.203Z,17.63
2019-01-19T01:12:20.572Z,18.87
2019-01-19T01:15:04.052Z,16.27
2019-01-19T01:17:35.995Z,18.40
2019-01-19T01:20:26.835Z,20.23
2019-01-19T01:23:00.860Z,18.13
2019-01-19T01:25:35.216Z,19.20
2019-01-19T01:28:12.548Z,16.53
2019-01-19T01:30:49.966Z,18.60
2019-01-19T01:33:26.928Z,18.87
2019-01-19T01:36:16.431Z,19.10
2019-01-19T01:38:59.851Z,19.00
2019-01-19T01:42:02.424Z,18.30
2019-01-19T01:44:33.899Z,18.40
2019-01-19T01:47:23.160Z,16.93
2019-01-19T01:50:09.524Z,15.37
2019-01-19T01:52:46.931Z,15.63
2019-01-19T01:55:24.095Z,16.43
2019-01-19T01:57:55.559Z,15.83
2019-01-19T02:00:27.029Z,16.53
2019-01-19T02:03:25.495Z,18.40
2019-01-19T02:06:02.598Z,16.73
2019-01-19T02:08:39.799Z,16.63
2019-01-19T02:11:11.260Z,17.93
2019-01-19T02:13:51.615Z,18.00
2019-01-19T02:16:47.271Z,16.70
2019-01-19T02:19:21.809Z,15.73
2019-01-19T02:21:56.143Z,13.37
2019-01-19T02:25:02.439Z,17.27
2019-01-19T02:27:48.972Z,16.23
2019-01-19T02:30:32.273Z,18.33
2019-01-19T02:33:03.735Z,17.47
2019-01-19T02:35:48.660Z,17.07
2019-01-19T02:38:29.144Z,17.03
2019-01-19T02:41:24.659Z,16.77
2019-01-19T02:44:08.087Z,16.37
2019-01-19T02:46:51.498Z,16.23
2019-01-19T02:49:28.672Z,14.93
2019-01-19T02:52:05.908Z,16.93
2019-01-19T02:54:42.959Z,16.27
2019-01-19T02:57:46.251Z,17.53
2019-01-19T03:00:29.516Z,17.70
2019-01-19T03:03:00.976Z,16.70
2019-01-19T03:05:38.216Z,16.27
2019-01-19T03:08:36.387Z,17.60
2019-01-19T03:11:16.631Z,17.83
2019-01-19T03:13:53.872Z,17.87
2019-01-19T03:16:34.192Z,16.27
2019-01-19T03:19:11.596Z,17.23
2019-01-19T03:22:07.183Z,18.90
2019-01-19T03:24:56.736Z,18.43
2019-01-19T03:27:28.219Z,19.03
2019-01-19T03:30:39.958Z,19.47
2019-01-19T03:33:13.994Z,18.77
2019-01-19T03:35:54.201Z,17.10
2019-01-19T03:38:25.672Z,16.93
2019-01-19T03:41:12.206Z,16.57
2019-01-19T03:43:49.784Z,17.07
2019-01-19T03:46:36.607Z,17.00
2019-01-19T03:49:27.032Z,17.23
2019-01-19T03:52:01.147Z,18.33
2019-01-19T03:54:52.035Z,16.77
2019-01-19T03:57:26.052Z,18.47
2019-01-19T04:00:03.362Z,19.70
2019-01-19T04:03:07.893Z,18.87
2019-01-19T04:05:42.012Z,17.73
2019-01-19T04:08:40.564Z,16.90
2019-01-19T04:11:12.040Z,18.77
2019-01-19T04:13:52.021Z,18.60
2019-01-19T04:16:32.288Z,19.10
2019-01-19T04:19:06.695Z,19.10
2019-01-19T04:21:54.511Z,19.23
2019-01-19T04:24:25.845Z,20.90
2019-01-19T04:26:54.136Z,20.70
2019-01-19T04:29:22.348Z,19.73
2019-01-19T04:31:50.576Z,19.97
2019-01-19T04:34:18.959Z,18.90
2019-01-19T04:36:47.433Z,20.60
2019-01-19T04:39:15.711Z,20.03
2019-01-19T04:41:43.925Z,19.70
2019-01-19T04:44:12.130Z,19.60
2019-01-19T04:46:40.336Z,19.43
2019-01-19T04:49:09.264Z,18.57
2019-01-19T04:51:37.464Z,19.93
2019-01-19T04:54:05.674Z,20.83
2019-01-19T04:56:33.881Z,20.20
2019-01-19T04:59:02.320Z,19.73
2019-01-19T05:01:30.536Z,20.00
2019-01-19T05:03:58.740Z,19.97
2019-01-19T05:06:30.530Z,18.93
2019-01-19T05:08:56.876Z,20.47
2019-01-19T05:11:25.097Z,20.30
2019-01-19T05:13:53.300Z,21.93
2019-01-19T05:16:21.517Z,19.60
2019-01-19T05:18:49.727Z,19.40
2019-01-19T05:21:18.407Z,20.97
2019-01-19T05:23:46.791Z,20.37
2019-01-19T05:26:14.992Z,21.63
2019-01-19T05:28:43.195Z,20.23
2019-01-19T05:31:11.407Z,22.00
2019-01-19T05:33:39.613Z,20.77
2019-01-19T05:36:07.816Z,19.90
2019-01-19T05:38:36.100Z,22.87
2019-01-19T05:41:04.317Z,23.37
2019-01-19T05:43:32.747Z,21.37
2019-01-19T05:46:00.964Z,24.80
2019-01-19T05:48:29.172Z,22.53
2019-01-19T05:50:57.376Z,23.13
2019-01-19T05:53:25.584Z,22.60
2019-01-19T05:55:53.779Z,21.47
2019-01-19T05:58:21.995Z,21.97
2019-01-19T06:00:50.201Z,21.60
2019-01-19T06:03:18.415Z,22.77
2019-01-19T06:05:46.699Z,22.83
2019-01-19T06:08:14.907Z,22.93
2019-01-19T06:10:43.891Z,22.27
2019-01-19T06:13:12.099Z,23.30
2019-01-19T06:15:40.312Z,24.63
2019-01-19T06:18:08.513Z,24.23
2019-01-19T06:20:36.726Z,25.70
2019-01-19T06:23:04.928Z,25.67
2019-01-19T06:25:33.143Z,26.13
2019-01-19T06:28:01.344Z,30.83
2019-01-19T06:30:29.561Z,28.13
2019-01-19T06:32:57.782Z,29.40
2019-01-19T06:35:26.220Z,27.10
2019-01-19T06:37:54.415Z,27.20
2019-01-19T06:40:22.636Z,27.93
2019-01-19T06:42:50.839Z,23.07
2019-01-19T06:45:21.937Z,30.00
2019-01-19T06:48:09.586Z,31.40
2019-01-19T06:50:37.784Z,31.70
2019-01-19T06:53:05.996Z,29.97
2019-01-19T06:55:34.192Z,30.03
2019-01-19T06:58:02.412Z,29.37
2019-01-19T07:00:30.616Z,30.13
2019-01-19T07:02:58.824Z,29.80
2019-01-19T07:05:27.045Z,28.70
2019-01-19T07:07:55.245Z,31.07
2019-01-19T07:10:25.290Z,30.43
2019-01-19T07:12:53.495Z,32.27
2019-01-19T07:15:21.699Z,30.80
2019-01-19T07:17:49.918Z,30.70
2019-01-19T07:20:23.608Z,30.00
2019-01-19T07:22:51.812Z,32.23
2019-01-19T07:25:20.040Z,31.57
2019-01-19T07:27:48.242Z,33.37
2019-01-19T07:30:17.015Z,33.67
2019-01-19T07:32:46.468Z,33.63
2019-01-19T07:35:15.316Z,29.07
2019-01-19T07:37:43.756Z,30.97
2019-01-19T07:40:17.360Z,32.53
2019-01-19T07:42:46.280Z,34.50
2019-01-19T07:45:15.219Z,35.20
2019-01-19T07:47:44.651Z,37.27
2019-01-19T07:50:15.256Z,33.63
2019-01-19T07:52:43.459Z,35.37
2019-01-19T07:55:13.815Z,37.97
2019-01-19T07:57:42.015Z,33.70
2019-01-19T08:00:16.280Z,33.23
2019-01-19T08:02:44.483Z,32.37
2019-01-19T08:05:12.693Z,32.80
2019-01-19T08:07:40.916Z,33.30
2019-01-19T08:10:16.836Z,32.07
2019-01-19T08:12:45.060Z,34.67
2019-01-19T08:15:15.872Z,32.63
2019-01-19T08:17:44.088Z,31.03
2019-01-19T08:20:13.632Z,26.63
2019-01-19T08:22:41.858Z,28.40
2019-01-19T08:25:11.613Z,27.17
2019-01-19T08:27:39.891Z,28.80
2019-01-19T08:30:20.185Z,27.57
2019-01-19T08:32:48.399Z,26.83
2019-01-19T08:35:17.627Z,23.73
2019-01-19T08:37:46.267Z,24.00
2019-01-19T08:40:20.379Z,26.37
2019-01-19T08:42:50.223Z,24.07
2019-01-19T08:45:19.087Z,22.30
2019-01-19T08:47:47.303Z,24.93
2019-01-19T08:50:15.521Z,19.13
2019-01-19T08:52:43.715Z,21.00
2019-01-19T08:55:11.919Z,20.93
2019-01-19T08:57:40.132Z,19.50
2019-01-19T09:00:16.890Z,20.10
2019-01-19T09:02:45.119Z,19.80
2019-01-19T09:05:13.512Z,18.77
2019-01-19T09:07:41.708Z,19.53
2019-01-19T09:10:13.060Z,15.70
2019-01-19T09:12:41.480Z,17.40
2019-01-19T09:15:18.195Z,18.60
2019-01-19T09:17:46.389Z,18.90
2019-01-19T09:20:17.763Z,19.73
2019-01-19T09:22:47.611Z,18.97
2019-01-19T09:25:16.143Z,21.37
2019-01-19T09:27:44.408Z,19.23
2019-01-19T09:30:17.603Z,14.77
2019-01-19T09:32:45.869Z,15.43
2019-01-19T09:35:14.063Z,15.40
2019-01-19T09:37:42.276Z,13.97
2019-01-19T09:40:15.329Z,13.33
2019-01-19T09:42:43.771Z,15.03
2019-01-19T09:45:16.951Z,14.57
2019-01-19T09:47:45.161Z,13.60
2019-01-19T09:50:15.400Z,11.60
2019-01-19T09:52:43.596Z,12.60
2019-01-19T09:55:11.804Z,13.13
2019-01-19T09:57:40.012Z,13.40
2019-01-19T10:00:16.852Z,13.80
2019-01-19T10:02:45.065Z,14.00
2019-01-19T10:05:15.996Z,11.33
2019-01-19T10:07:48.490Z,13.33
2019-01-19T10:10:14.187Z,12.47
2019-01-19T10:12:42.395Z,12.23
2019-01-19T10:15:16.451Z,11.67
2019-01-19T10:17:44.638Z,10.83
2019-01-19T10:20:24.235Z,11.47
2019-01-19T10:22:52.424Z,11.40
2019-01-19T10:25:20.633Z,11.27
2019-01-19T10:27:48.819Z,11.43
2019-01-19T10:30:22.966Z,10.10
2019-01-19T10:32:51.219Z,10.73
2019-01-19T10:35:19.416Z,11.37
2019-01-19T10:37:47.606Z,9.93
2019-01-19T10:40:17.247Z,11.60
2019-01-19T10:42:45.619Z,9.80
2019-01-19T10:45:19.427Z,9.17
2019-01-19T10:47:47.623Z,10.17
2019-01-19T10:50:17.567Z,10.97
2019-01-19T10:52:46.200Z,10.70
2019-01-19T10:55:16.756Z,11.00
2019-01-19T10:57:44.947Z,9.53
2019-01-19T11:00:24.592Z,9.07
2019-01-19T11:02:53.123Z,9.93
2019-01-19T11:05:21.401Z,10.33
2019-01-19T11:07:49.961Z,9.07
2019-01-19T11:10:20.303Z,9.33
2019-01-19T11:12:48.510Z,8.20
2019-01-19T11:15:18.244Z,13.23
2019-01-19T11:17:46.687Z,10.67
2019-01-19T11:20:23.435Z,12.07
2019-01-19T11:22:51.640Z,9.70
2019-01-19T11:25:19.833Z,8.87
2019-01-19T11:27:48.040Z,8.50
2019-01-19T11:30:19.147Z,9.30
2019-01-19T11:32:47.335Z,9.17
2019-01-19T11:35:15.796Z,8.37
2019-01-19T11:37:44.010Z,8.70
2019-01-19T11:40:18.278Z,8.27
2019-01-19T11:42:46.827Z,8.03
2019-01-19T11:45:20.073Z,8.40
2019-01-19T11:47:48.263Z,8.67
2019-01-19T11:50:16.472Z,7.87
2019-01-19T11:52:45.029Z,8.37
2019-01-19T11:55:17.107Z,8.40
2019-01-19T11:57:45.311Z,7.83
2019-01-19T12:00:27.436Z,7.17
2019-01-19T12:02:55.624Z,7.40
2019-01-19T12:05:23.823Z,7.60
2019-01-19T12:07:52.027Z,7.77
2019-01-19T12:10:22.168Z,7.47
2019-01-19T12:12:50.363Z,8.13
2019-01-19T12:15:18.568Z,7.40
2019-01-19T12:17:46.759Z,6.90
2019-01-19T12:20:21.009Z,6.70
2019-01-19T12:22:49.200Z,7.40
2019-01-19T12:25:19.932Z,7.77
2019-01-19T12:27:48.135Z,6.90
2019-01-19T12:30:24.751Z,6.37
2019-01-19T12:32:52.950Z,6.87
2019-01-19T12:35:21.143Z,6.83
2019-01-19T12:37:49.342Z,6.50
2019-01-19T12:40:19.783Z,6.37
2019-01-19T12:42:49.336Z,6.27
2019-01-19T12:45:27.027Z,6.70
2019-01-19T12:47:55.231Z,6.40
2019-01-19T12:50:25.775Z,6.30
2019-01-19T12:52:53.972Z,6.43
2019-01-19T12:55:22.316Z,7.73
2019-01-19T12:57:50.583Z,6.40
2019-01-19T13:00:27.304Z,5.80
2019-01-19T13:02:56.137Z,6.33
2019-01-19T13:05:36.751Z,6.90
2019-01-19T13:08:08.343Z,6.83
2019-01-19T13:10:39.815Z,6.47
2019-01-19T13:13:08.368Z,5.83
2019-01-19T13:15:57.645Z,5.53
2019-01-19T13:18:50.247Z,5.97
2019-01-19T13:21:41.123Z,6.10
2019-01-19T13:24:18.398Z,6.23
2019-01-19T13:26:58.544Z,5.80
2019-01-19T13:29:35.572Z,6.00
2019-01-19T13:32:13.007Z,5.97
2019-01-19T13:35:11.899Z,5.50
2019-01-19T13:38:12.131Z,5.80
2019-01-19T13:40:49.324Z,5.77
2019-01-19T13:43:46.799Z,6.23
2019-01-19T13:46:42.043Z,5.20
2019-01-19T13:49:22.147Z,5.30
2019-01-19T13:51:53.591Z,4.70
2019-01-19T13:54:28.096Z,4.83
2019-01-19T13:56:59.547Z,4.83
2019-01-19T13:59:47.840Z,5.17
2019-01-19T14:02:35.864Z,5.20
2019-01-19T14:05:19.195Z,4.43
2019-01-19T14:08:09.635Z,5.00
2019-01-19T14:10:46.955Z,4.90
2019-01-19T14:13:34.787Z,4.50
2019-01-19T14:16:08.919Z,4.77
2019-01-19T14:18:40.794Z,4.53
2019-01-19T14:21:24.135Z,4.27
2019-01-19T14:23:58.824Z,4.63
2019-01-19T14:26:39.252Z,4.30
2019-01-19T14:29:28.288Z,4.67
2019-01-19T14:32:19.189Z,4.07
2019-01-19T14:35:09.987Z,3.90
2019-01-19T14:38:02.048Z,3.97
2019-01-19T14:40:44.932Z,5.03
2019-01-19T14:43:22.135Z,5.13
2019-01-19T14:45:56.435Z,5.23
2019-01-19T14:48:46.259Z,5.37
2019-01-19T14:51:38.260Z,5.00
2019-01-19T14:54:12.364Z,4.80
2019-01-19T14:56:46.798Z,5.33
2019-01-19T14:59:26.995Z,5.87
2019-01-19T15:02:12.908Z,7.97
2019-01-19T15:04:53.187Z,4.47
2019-01-19T15:07:36.083Z,6.60
2019-01-19T15:10:22.403Z,10.97
2019-01-19T15:12:59.648Z,6.47
2019-01-19T15:15:42.997Z,4.40
2019-01-19T15:18:35.287Z,5.47
2019-01-19T15:21:27.680Z,5.20
2019-01-19T15:24:04.608Z,5.73
2019-01-19T15:26:48.187Z,5.43
2019-01-19T15:29:22.516Z,4.90
2019-01-19T15:31:53.959Z,4.70
2019-01-19T15:34:37.568Z,11.03
2019-01-19T15:37:18.175Z,4.30
2019-01-19T15:39:55.555Z,4.60
2019-01-19T15:42:29.672Z,4.90
2019-01-19T15:45:09.795Z,4.97
2019-01-19T15:47:47.275Z,4.63
2019-01-19T15:50:21.240Z,6.10
2019-01-19T15:52:52.710Z,5.30
2019-01-19T15:55:36.198Z,4.83
2019-01-19T15:58:25.914Z,4.90
2019-01-19T16:00:57.375Z,5.43
2019-01-19T16:03:31.789Z,4.60
2019-01-19T16:06:12.363Z,5.43
2019-01-19T16:09:03.860Z,5.97
2019-01-19T16:11:35.323Z,5.27
2019-01-19T16:14:29.702Z,5.80
2019-01-19T16:17:32.967Z,13.03
2019-01-19T16:20:25.428Z,5.90
2019-01-19T16:22:59.672Z,6.27
2019-01-19T16:25:39.963Z,4.70
2019-01-19T16:28:16.612Z,4.50
2019-01-19T16:31:03.068Z,6.27
2019-01-19T16:33:46.536Z,5.17
2019-01-19T16:36:33.011Z,5.13
2019-01-19T16:39:25.557Z,5.40
2019-01-19T16:41:52.643Z,6.03
2019-01-19T16:44:56.860Z,4.73
2019-01-19T16:47:44.909Z,5.37
2019-01-19T16:50:27.764Z,5.00
2019-01-19T16:53:01.809Z,5.50
2019-01-19T16:55:45.067Z,5.23
2019-01-19T16:58:34.828Z,4.87
2019-01-19T17:01:25.763Z,5.70
2019-01-19T17:04:06.187Z,5.13
2019-01-19T17:06:40.319Z,6.10
2019-01-19T17:09:17.383Z,5.17
2019-01-19T17:12:05.235Z,5.20
2019-01-19T17:14:58.475Z,6.40
2019-01-19T17:18:04.046Z,6.23
2019-01-19T17:20:44.472Z,5.10
2019-01-19T17:23:29.262Z,4.90
2019-01-19T17:26:03.502Z,4.93
2019-01-19T17:28:41.001Z,5.47
2019-01-19T17:31:27.187Z,5.27
2019-01-19T17:34:16.763Z,6.30
2019-01-19T17:37:08.679Z,5.20
2019-01-19T17:39:48.972Z,5.17
2019-01-19T17:42:45.444Z,5.70
2019-01-19T17:45:23.019Z,5.00
2019-01-19T17:48:21.827Z,5.70
2019-01-19T17:51:17.067Z,4.83
2019-01-19T17:54:13.765Z,5.07
2019-01-19T17:56:48.040Z,5.40
2019-01-19T17:59:34.596Z,4.87
2019-01-19T18:02:30.019Z,5.00
2019-01-19T18:05:12.692Z,5.40
2019-01-19T18:07:49.871Z,5.00
2019-01-19T18:10:42.476Z,4.63
2019-01-19T18:13:13.935Z,4.90
2019-01-19T18:15:57.585Z,5.80
2019-01-19T18:18:48.576Z,5.03
2019-01-19T18:21:34.786Z,6.73
2019-01-19T18:24:15.535Z,8.03
2019-01-19T18:26:58.799Z,8.00
2019-01-19T18:30:08.878Z,7.17
2019-01-19T18:32:49.350Z,8.07
2019-01-19T18:35:48.652Z,6.37
2019-01-19T18:38:36.547Z,9.17
2019-01-19T18:41:28.448Z,8.50
2019-01-19T18:44:11.735Z,10.07
2019-01-19T18:46:55.411Z,8.67
2019-01-19T18:49:41.463Z,7.60
2019-01-19T18:52:35.688Z,8.77
2019-01-19T18:55:12.684Z,9.30
2019-01-19T18:58:00.377Z,8.33
2019-01-19T19:00:49.809Z,8.33
2019-01-19T19:03:45.157Z,8.17
2019-01-19T19:06:34.424Z,8.43
2019-01-19T19:09:32.923Z,10.30
2019-01-19T19:12:19.337Z,11.43
2019-01-19T19:15:02.885Z,7.13
2019-01-19T19:17:53.703Z,14.90
2019-01-19T19:20:46.379Z,11.27
2019-01-19T19:23:29.851Z,6.90
2019-01-19T19:26:04.239Z,15.83
2019-01-19T19:28:41.427Z,11.03
2019-01-19T19:31:34.124Z,10.00
2019-01-19T19:34:08.379Z,9.00
2019-01-19T19:37:04.683Z,8.60
2019-01-19T19:39:52.916Z,7.93
2019-01-19T19:42:36.405Z,6.57
2019-01-19T19:45:13.962Z,6.73
2019-01-19T19:48:01.911Z,5.57
2019-01-19T19:50:39.303Z,5.57
2019-01-19T19:53:07.744Z,6.10
2019-01-19T19:55:35.067Z,5.73
2019-01-19T19:58:03.265Z,5.73
2019-01-19T20:00:31.551Z,6.00
2019-01-19T20:02:59.756Z,6.20
2019-01-19T20:05:27.960Z,6.17
2019-01-19T20:07:57.000Z,6.23
2019-01-19T20:10:25.203Z,6.33
2019-01-19T20:12:53.409Z,5.53
2019-01-19T20:15:21.616Z,6.57
2019-01-19T20:17:49.824Z,6.20
2019-01-19T20:20:18.033Z,6.63
2019-01-19T20:22:46.240Z,7.53
2019-01-19T20:25:14.461Z,8.43
2019-01-19T20:27:42.679Z,8.10
2019-01-19T20:30:14.132Z,7.97
2019-01-19T20:32:42.336Z,7.20
2019-01-19T20:35:10.541Z,6.60
2019-01-19T20:37:38.743Z,6.53
2019-01-19T20:40:08.939Z,6.40
2019-01-19T20:42:37.143Z,6.80
2019-01-19T20:45:13.394Z,6.77
2019-01-19T20:47:41.589Z,7.20
2019-01-19T20:50:17.224Z,6.87
2019-01-19T20:52:45.422Z,7.50
2019-01-19T20:55:13.630Z,6.67
2019-01-19T20:57:41.840Z,6.90
2019-01-19T21:00:18.169Z,6.73
2019-01-19T21:02:46.356Z,7.00
2019-01-19T21:05:14.559Z,7.10
2019-01-19T21:07:42.774Z,6.33
2019-01-19T21:10:10.972Z,7.50
2019-01-19T21:12:39.191Z,7.37
2019-01-19T21:15:10.691Z,5.93
2019-01-19T21:17:38.889Z,6.77
2019-01-19T21:20:09.640Z,7.03
2019-01-19T21:22:37.847Z,7.30
2019-01-19T21:25:07.687Z,6.60
2019-01-19T21:27:35.895Z,7.17
2019-01-19T21:30:06.991Z,7.20
2019-01-19T21:32:35.204Z,7.50
2019-01-19T21:35:04.180Z,7.77
2019-01-19T21:37:32.388Z,7.93
2019-01-19T21:40:00.596Z,7.13
2019-01-19T21:42:28.803Z,8.63
2019-01-19T21:44:57.005Z,6.77
2019-01-19T21:47:25.196Z,7.27
2019-01-19T21:49:53.412Z,7.97
2019-01-19T21:52:21.605Z,8.10
2019-01-19T21:54:49.816Z,8.40
2019-01-19T21:57:18.020Z,7.63
2019-01-19T21:59:46.219Z,7.60
2019-01-19T22:02:14.432Z,8.27
2019-01-19T22:04:42.633Z,7.17
2019-01-19T22:07:10.824Z,7.30
2019-01-19T22:09:39.031Z,7.67
2019-01-19T22:12:07.239Z,8.30
2019-01-19T22:14:35.451Z,7.63
2019-01-19T22:17:03.652Z,7.63
2019-01-19T22:19:31.859Z,6.73
2019-01-19T22:22:00.059Z,7.10
2019-01-19T22:24:28.256Z,5.80
2019-01-19T22:26:56.736Z,6.67
2019-01-19T22:29:25.015Z,5.77
2019-01-19T22:32:12.656Z,6.97
2019-01-19T22:34:40.867Z,6.17
2019-01-19T22:37:09.068Z,7.60
2019-01-19T22:39:37.264Z,6.87
2019-01-19T22:42:05.473Z,6.87
2019-01-19T22:44:33.679Z,6.03
2019-01-19T22:47:01.875Z,6.97
2019-01-19T22:49:30.084Z,7.00
2019-01-19T22:51:58.279Z,6.07
2019-01-19T22:54:26.483Z,6.67
2019-01-19T22:56:56.163Z,4.87
2019-01-19T22:59:24.576Z,5.33
2019-01-19T23:01:52.771Z,7.33
2019-01-19T23:04:20.978Z,6.43
2019-01-19T23:06:49.254Z,7.57
2019-01-19T23:09:17.467Z,6.50
2019-01-19T23:11:45.737Z,8.60
2019-01-19T23:14:14.210Z,7.10
2019-01-19T23:16:42.421Z,7.00
2019-01-19T23:19:30.047Z,7.43
2019-01-19T23:21:58.259Z,7.90
2019-01-19T23:24:26.464Z,8.13
2019-01-19T23:26:55.844Z,11.00
2019-01-19T23:29:24.043Z,8.40
2019-01-19T23:31:52.251Z,7.80
2019-01-19T23:34:20.454Z,8.40
2019-01-19T23:36:48.731Z,7.47
2019-01-19T23:39:16.935Z,8.27
2019-01-19T23:41:45.132Z,8.30
2019-01-19T23:44:13.344Z,8.33
2019-01-19T23:46:41.536Z,9.03
2019-01-19T23:49:09.751Z,9.00
2019-01-19T23:51:37.944Z,9.43
2019-01-19T23:54:06.155Z,8.87
2019-01-19T23:56:34.355Z,7.57
2019-01-19T23:59:02.833Z,8.70
